sensor_id;sensor_type;location;lat;lon;timestamp;pressure;altitude;pressure_sealevel;temperature;humidity
20636;BME280;10477;43.198;27.916;2022-09-21T00:01:27;73608.08;;;-143.34;100.00
20636;BME280;10477;43.198;27.916;2022-09-21T00:03:58;76432.00;;;-143.34;100.00
20636;BME280;10477;43.198;27.916;2022-09-21T00:06:29;80415.11;;;-143.34;100.00
20636;BME280;10477;43.198;27.916;2022-09-21T00:08:57;84402.83;;;-143.34;100.00
20636;BME280;10477;43.198;27.916;2022-09-21T00:11:29;86205.25;;;-143.34;100.00
20636;BME280;10477;43.198;27.916;2022-09-21T00:14:04;86205.25;;;-143.34;100.00
20636;BME280;10477;43.198;27.916;2022-09-21T00:16:32;86076.48;;;-143.34;100.00
20636;BME280;10477;43.198;27.916;2022-09-21T00:19:01;87622.10;;;-143.34;100.00
20636;BME280;10477;43.198;27.916;2022-09-21T00:21:29;88652.91;;;-143.34;100.00
20636;BME280;10477;43.198;27.916;2022-09-21T00:23:57;88395.17;;;-143.34;100.00
20636;BME280;10477;43.198;27.916;2022-09-21T00:26:28;87750.94;;;-143.34;100.00
20636;BME280;10477;43.198;27.916;2022-09-21T00:28:57;86462.82;;;-143.34;100.00
20636;BME280;10477;43.198;27.916;2022-09-21T00:31:26;85818.94;;;-143.34;100.00
20636;BME280;10477;43.198;27.916;2022-09-21T00:33:54;84917.72;;;-143.34;100.00
20636;BME280;10477;43.198;27.916;2022-09-21T00:36:25;83888.03;;;-143.34;100.00
20636;BME280;10477;43.198;27.916;2022-09-21T00:38:56;84016.72;;;-143.34;100.00
20636;BME280;10477;43.198;27.916;2022-09-21T00:41:25;82344.08;;;-143.34;100.00
20636;BME280;10477;43.198;27.916;2022-09-21T00:46:55;81700.97;;;-143.34;100.00
20636;BME280;10477;43.198;27.916;2022-09-21T00:49:23;82858.65;;;-143.34;100.00
20636;BME280;10477;43.198;27.916;2022-09-21T00:51:52;83759.34;;;-143.34;100.00
20636;BME280;10477;43.198;27.916;2022-09-21T00:54:24;83759.34;;;-143.34;100.00
20636;BME280;10477;43.198;27.916;2022-09-21T00:56:51;84145.42;;;-143.34;100.00
20636;BME280;10477;43.198;27.916;2022-09-21T00:59:19;84917.72;;;-143.34;100.00
20636;BME280;10477;43.198;27.916;2022-09-21T01:01:47;86591.61;;;-143.34;100.00
20636;BME280;10477;43.198;27.916;2022-09-21T01:04:16;88395.17;;;-143.34;100.00
20636;BME280;10477;43.198;27.916;2022-09-21T01:06:44;89297.31;;;-143.34;100.00
20636;BME280;10477;43.198;27.916;2022-09-21T01:09:14;90199.69;;;-143.34;100.00
20636;BME280;10477;43.198;27.916;2022-09-21T01:12:02;90457.55;;;-143.34;100.00
20636;BME280;10477;43.198;27.916;2022-09-21T01:22:57;91876.14;;;-143.34;100.00
20636;BME280;10477;43.198;27.916;2022-09-21T01:31:45;89941.84;;;-143.34;100.00
20636;BME280;10477;43.198;27.916;2022-09-21T01:34:08;88910.66;;;-143.34;100.00
20636;BME280;10477;43.198;27.916;2022-09-21T01:36:35;87235.63;;;-143.34;100.00
20636;BME280;10477;43.198;27.916;2022-09-21T01:39:10;84531.55;;;-143.34;100.00
20636;BME280;10477;43.198;27.916;2022-09-21T01:41:39;82601.35;;;-143.34;100.00
20636;BME280;10477;43.198;27.916;2022-09-21T01:44:17;81186.56;;;-143.34;100.00
20636;BME280;10477;43.198;27.916;2022-09-21T01:46:46;80286.55;;;-143.34;100.00
20636;BME280;10477;43.198;27.916;2022-09-21T01:49:26;79001.22;;;-143.34;100.00
20636;BME280;10477;43.198;27.916;2022-09-21T01:52:02;78101.77;;;-143.34;100.00
20636;BME280;10477;43.198;27.916;2022-09-21T01:54:27;78487.22;;;-143.34;100.00
20636;BME280;10477;43.198;27.916;2022-09-21T01:57:01;80929.39;;;-143.34;100.00
20636;BME280;10477;43.198;27.916;2022-09-21T01:59:39;83501.97;;;-143.34;100.00
20636;BME280;10477;43.198;27.916;2022-09-21T02:02:14;87106.81;;;-143.34;100.00
20636;BME280;10477;43.198;27.916;2022-09-21T02:04:44;89426.20;;;-143.34;100.00
20636;BME280;10477;43.198;27.916;2022-09-21T02:07:11;91489.20;;;-143.34;100.00
20636;BME280;10477;43.198;27.916;2022-09-21T02:09:39;92908.21;;;-143.34;100.00
20636;BME280;10477;43.198;27.916;2022-09-21T02:12:07;93811.52;;;-143.34;100.00
20636;BME280;10477;43.198;27.916;2022-09-21T02:14:37;94844.17;;;-143.34;100.00
20636;BME280;10477;43.198;27.916;2022-09-21T02:19:54;96910.39;;;-143.34;100.00
20636;BME280;10477;43.198;27.916;2022-09-21T02:28:00;99882.72;;;-143.34;100.00
20636;BME280;10477;43.198;27.916;2022-09-21T02:30:27;100141.31;;;-143.34;100.00
20636;BME280;10477;43.198;27.916;2022-09-21T02:33:04;100270.61;;;-143.34;100.00
20636;BME280;10477;43.198;27.916;2022-09-21T02:35:37;100141.31;;;-143.34;100.00
20636;BME280;10477;43.198;27.916;2022-09-21T02:43:22;100141.31;;;-143.34;100.00
20636;BME280;10477;43.198;27.916;2022-09-21T02:46:03;100270.61;;;-143.34;100.00
20636;BME280;10477;43.198;27.916;2022-09-21T02:48:48;100141.31;;;-143.34;100.00
20636;BME280;10477;43.198;27.916;2022-09-21T02:51:15;100012.02;;;-143.34;100.00
20636;BME280;10477;43.198;27.916;2022-09-21T02:53:44;100012.02;;;-143.34;100.00
20636;BME280;10477;43.198;27.916;2022-09-21T02:56:14;99882.72;;;-143.34;100.00
20636;BME280;10477;43.198;27.916;2022-09-21T02:58:47;99882.72;;;-143.34;100.00
20636;BME280;10477;43.198;27.916;2022-09-21T03:01:16;100012.02;;;-143.34;100.00
20636;BME280;10477;43.198;27.916;2022-09-21T03:03:45;100270.61;;;-143.34;100.00
20636;BME280;10477;43.198;27.916;2022-09-21T03:06:14;100529.22;;;-143.34;100.00
20636;BME280;10477;43.198;27.916;2022-09-21T03:08:41;100658.53;;;-143.34;100.00
20636;BME280;10477;43.198;27.916;2022-09-21T03:11:09;100529.22;;;-143.34;100.00
20636;BME280;10477;43.198;27.916;2022-09-21T03:13:37;100529.22;;;-143.34;100.00
20636;BME280;10477;43.198;27.916;2022-09-21T03:16:06;100270.61;;;-143.34;100.00
20636;BME280;10477;43.198;27.916;2022-09-21T03:18:33;100012.02;;;-143.34;100.00
20636;BME280;10477;43.198;27.916;2022-09-21T03:21:01;99753.44;;;-143.34;100.00
20636;BME280;10477;43.198;27.916;2022-09-21T03:23:29;98848.58;;;-143.34;100.00
20636;BME280;10477;43.198;27.916;2022-09-21T03:25:57;97943.95;;;-143.34;100.00
20636;BME280;10477;43.198;27.916;2022-09-21T03:28:25;97039.56;;;-143.34;100.00
20636;BME280;10477;43.198;27.916;2022-09-21T03:30:52;96006.27;;;-143.34;100.00
20636;BME280;10477;43.198;27.916;2022-09-21T03:33:20;94844.17;;;-143.34;100.00
20636;BME280;10477;43.198;27.916;2022-09-21T03:35:50;94069.66;;;-143.34;100.00
20636;BME280;10477;43.198;27.916;2022-09-21T03:38:19;93682.46;;;-143.34;100.00
20636;BME280;10477;43.198;27.916;2022-09-21T03:40:53;93553.41;;;-143.34;100.00
20636;BME280;10477;43.198;27.916;2022-09-21T03:43:21;93811.52;;;-143.34;100.00
20636;BME280;10477;43.198;27.916;2022-09-21T03:45:49;93940.59;;;-143.34;100.00
20636;BME280;10477;43.198;27.916;2022-09-21T03:48:16;94327.81;;;-143.34;100.00
20636;BME280;10477;43.198;27.916;2022-09-21T03:50:44;94585.98;;;-143.34;100.00
20636;BME280;10477;43.198;27.916;2022-09-21T03:53:13;94585.98;;;-143.34;100.00
20636;BME280;10477;43.198;27.916;2022-09-21T03:55:41;94327.81;;;-143.34;100.00
20636;BME280;10477;43.198;27.916;2022-09-21T03:58:09;94069.66;;;-143.34;100.00
20636;BME280;10477;43.198;27.916;2022-09-21T04:00:37;93940.59;;;-143.34;100.00
20636;BME280;10477;43.198;27.916;2022-09-21T04:03:04;93940.59;;;-143.34;100.00
20636;BME280;10477;43.198;27.916;2022-09-21T04:05:33;93940.59;;;-143.34;100.00
20636;BME280;10477;43.198;27.916;2022-09-21T04:08:01;93553.41;;;-143.34;100.00
20636;BME280;10477;43.198;27.916;2022-09-21T04:10:29;93166.28;;;-143.34;100.00
20636;BME280;10477;43.198;27.916;2022-09-21T04:13:00;92650.16;;;-143.34;100.00
20636;BME280;10477;43.198;27.916;2022-09-21T04:15:29;92005.13;;;-143.34;100.00
20636;BME280;10477;43.198;27.916;2022-09-21T04:17:57;91489.20;;;-143.34;100.00
20636;BME280;10477;43.198;27.916;2022-09-21T04:20:25;91231.25;;;-143.34;100.00
20636;BME280;10477;43.198;27.916;2022-09-21T04:22:55;91231.25;;;-143.34;100.00
20636;BME280;10477;43.198;27.916;2022-09-21T04:25:23;91231.25;;;-143.34;100.00
20636;BME280;10477;43.198;27.916;2022-09-21T04:27:51;90844.38;;;-143.34;100.00
20636;BME280;10477;43.198;27.916;2022-09-21T04:30:19;90586.48;;;-143.34;100.00
20636;BME280;10477;43.198;27.916;2022-09-21T04:32:46;91489.20;;;-143.34;100.00
20636;BME280;10477;43.198;27.916;2022-09-21T04:35:14;92005.13;;;-143.34;100.00
20636;BME280;10477;43.198;27.916;2022-09-21T04:37:42;91876.14;;;-143.34;100.00
20636;BME280;10477;43.198;27.916;2022-09-21T04:40:10;91360.22;;;-143.34;100.00
20636;BME280;10477;43.198;27.916;2022-09-21T04:42:38;90586.48;;;-143.34;100.00
20636;BME280;10477;43.198;27.916;2022-09-21T04:45:06;90070.76;;;-143.34;100.00
20636;BME280;10477;43.198;27.916;2022-09-21T04:47:34;90586.48;;;-143.34;100.00
20636;BME280;10477;43.198;27.916;2022-09-21T04:50:02;90844.38;;;-143.34;100.00
20636;BME280;10477;43.198;27.916;2022-09-21T04:52:30;90457.55;;;-143.34;100.00
20636;BME280;10477;43.198;27.916;2022-09-21T04:54:58;90457.55;;;-143.34;100.00
20636;BME280;10477;43.198;27.916;2022-09-21T04:57:25;90070.76;;;-143.34;100.00
20636;BME280;10477;43.198;27.916;2022-09-21T04:59:53;89297.31;;;-143.34;100.00
20636;BME280;10477;43.198;27.916;2022-09-21T05:02:20;87750.94;;;-143.34;100.00
20636;BME280;10477;43.198;27.916;2022-09-21T05:04:48;85561.42;;;-143.34;100.00
20636;BME280;10477;43.198;27.916;2022-09-21T05:07:16;83373.30;;;-143.34;100.00
20636;BME280;10477;43.198;27.916;2022-09-21T05:09:44;81443.75;;;-143.34;100.00
20636;BME280;10477;43.198;27.916;2022-09-21T05:12:34;79900.89;;;-143.34;100.00
20636;BME280;10477;43.198;27.916;2022-09-21T05:15:02;78487.22;;;-143.34;100.00
20636;BME280;10477;43.198;27.916;2022-09-21T05:17:30;76945.69;;;-143.34;100.00
20636;BME280;10477;43.198;27.916;2022-09-21T05:19:58;75661.61;;;-143.34;100.00
20636;BME280;10477;43.198;27.916;2022-09-21T05:22:27;73993.02;;;-143.34;100.00
20636;BME280;10477;43.198;27.916;2022-09-21T05:24:55;71299.33;;;-143.34;100.00
20636;BME280;10477;43.198;27.916;2022-09-21T05:27:22;69376.56;;;-143.34;100.00
20636;BME280;10477;43.198;27.916;2022-09-21T05:29:51;66814.55;;;-143.34;100.00
20636;BME280;10477;43.198;27.916;2022-09-21T05:32:53;66046.31;;;-143.34;100.00
20636;BME280;10477;43.198;27.916;2022-09-21T05:38:05;67839.12;;;-143.34;100.00
20636;BME280;10477;43.198;27.916;2022-09-21T05:40:32;65022.28;;;-143.34;100.00
20636;BME280;10477;43.198;27.916;2022-09-21T05:43:01;61824.15;;;-143.34;100.00
20636;BME280;10477;43.198;27.916;2022-09-21T05:45:29;61568.43;;;-143.34;100.00
20636;BME280;10477;43.198;27.916;2022-09-21T05:48:16;59267.81;;;-143.34;100.00
20636;BME280;10477;43.198;27.916;2022-09-21T05:50:55;56841.07;;;-143.34;100.00
20636;BME280;10477;43.198;27.916;2022-09-21T05:53:32;51482.84;;;-143.34;100.00
20636;BME280;10477;43.198;27.916;2022-09-21T05:56:02;50335.75;;;-143.34;100.00
20636;BME280;10477;43.198;27.916;2022-09-21T06:04:12;51610.32;;;-143.34;100.00
20636;BME280;10477;43.198;27.916;2022-09-21T06:06:39;47279.99;;;-143.34;100.00
20636;BME280;10477;43.198;27.916;2022-09-21T06:09:07;47467.74;;;-143.34;100.00
20636;BME280;10477;43.198;27.916;2022-09-21T06:11:35;47151.68;;;-143.34;100.00
20636;BME280;10477;43.198;27.916;2022-09-21T06:14:04;41300.39;;;-143.34;100.00
20636;BME280;10477;43.198;27.916;2022-09-21T06:16:39;42190.15;;;-143.34;100.00
20636;BME280;10477;43.198;27.916;2022-09-21T06:19:11;39775.64;;;-143.34;100.00
20636;BME280;10477;43.198;27.916;2022-09-21T06:21:39;39521.58;;;-143.34;100.00
20636;BME280;10477;43.198;27.916;2022-09-21T06:24:07;37997.63;;;-143.34;100.00
20636;BME280;10477;43.198;27.916;2022-09-21T06:26:34;37870.67;;;-143.34;100.00
20636;BME280;10477;43.198;27.916;2022-09-21T06:29:02;25325.00;;;-143.34;100.00
20636;BME280;10477;43.198;27.916;2022-09-21T06:31:32;15095.39;;;-143.34;100.00
20636;BME280;10477;43.198;27.916;2022-09-21T06:34:00;13204.48;;;-143.34;100.00
20636;BME280;10477;43.198;27.916;2022-09-21T06:36:29;14464.96;;;-143.34;100.00
20636;BME280;10477;43.198;27.916;2022-09-21T06:38:57;500.48;;;-143.34;100.00
20636;BME280;10477;43.198;27.916;2022-09-21T06:41:25;-3138.15;;;-143.34;100.00
20636;BME280;10477;43.198;27.916;2022-09-21T06:43:55;-1507.54;;;-143.34;100.00
20636;BME280;10477;43.198;27.916;2022-09-21T06:46:23;-9276.99;;;-143.34;100.00
20636;BME280;10477;43.198;27.916;2022-09-21T06:48:51;-13529.81;;;-143.34;100.00
20636;BME280;10477;43.198;27.916;2022-09-21T06:51:19;-17276.47;;;-143.34;100.00
20636;BME280;10477;43.198;27.916;2022-09-21T06:53:47;-17276.47;;;-143.34;100.00
20636;BME280;10477;43.198;27.916;2022-09-21T06:56:15;-17276.47;;;-143.34;100.00
20636;BME280;10477;43.198;27.916;2022-09-21T06:58:43;-17276.47;;;-143.34;100.00
20636;BME280;10477;43.198;27.916;2022-09-21T07:01:14;-17276.47;;;-143.34;100.00
20636;BME280;10477;43.198;27.916;2022-09-21T07:03:42;-17276.47;;;-143.34;100.00
20636;BME280;10477;43.198;27.916;2022-09-21T07:06:11;-17276.47;;;-143.34;100.00
20636;BME280;10477;43.198;27.916;2022-09-21T07:08:41;-17276.47;;;-143.34;100.00
20636;BME280;10477;43.198;27.916;2022-09-21T07:11:10;-17276.47;;;-143.34;100.00
20636;BME280;10477;43.198;27.916;2022-09-21T07:13:39;-17276.47;;;-143.34;100.00
20636;BME280;10477;43.198;27.916;2022-09-21T07:16:08;-17276.47;;;-143.34;100.00
20636;BME280;10477;43.198;27.916;2022-09-21T07:18:38;-17276.47;;;-143.34;100.00
20636;BME280;10477;43.198;27.916;2022-09-21T07:21:08;-17276.47;;;-143.34;100.00
20636;BME280;10477;43.198;27.916;2022-09-21T07:23:36;-17276.47;;;-143.34;100.00
20636;BME280;10477;43.198;27.916;2022-09-21T07:26:10;-17276.47;;;-143.34;100.00
20636;BME280;10477;43.198;27.916;2022-09-21T07:28:38;-17276.47;;;-143.34;100.00
20636;BME280;10477;43.198;27.916;2022-09-21T07:31:09;-17276.47;;;-143.34;100.00
20636;BME280;10477;43.198;27.916;2022-09-21T07:33:38;-17276.47;;;-143.34;100.00
20636;BME280;10477;43.198;27.916;2022-09-21T07:36:07;-17276.47;;;-143.34;100.00
20636;BME280;10477;43.198;27.916;2022-09-21T07:38:40;-17276.47;;;-143.34;100.00
20636;BME280;10477;43.198;27.916;2022-09-21T07:41:10;-17276.47;;;-143.34;100.00
20636;BME280;10477;43.198;27.916;2022-09-21T07:43:38;-17276.47;;;-143.34;100.00
20636;BME280;10477;43.198;27.916;2022-09-21T07:46:08;-17276.47;;;-143.34;100.00
20636;BME280;10477;43.198;27.916;2022-09-21T07:48:37;-17276.47;;;-143.34;100.00
20636;BME280;10477;43.198;27.916;2022-09-21T07:51:07;-17276.47;;;-143.34;100.00
20636;BME280;10477;43.198;27.916;2022-09-21T07:53:36;-17276.47;;;-143.34;100.00
20636;BME280;10477;43.198;27.916;2022-09-21T07:56:11;-17276.47;;;-143.34;100.00
20636;BME280;10477;43.198;27.916;2022-09-21T07:58:35;-17276.47;;;-143.34;100.00
20636;BME280;10477;43.198;27.916;2022-09-21T08:01:27;-17276.47;;;-143.34;100.00
20636;BME280;10477;43.198;27.916;2022-09-21T08:03:57;-17276.47;;;-143.34;100.00
20636;BME280;10477;43.198;27.916;2022-09-21T08:06:27;-17276.47;;;-143.34;100.00
20636;BME280;10477;43.198;27.916;2022-09-21T08:08:56;-17276.47;;;-143.34;100.00
20636;BME280;10477;43.198;27.916;2022-09-21T08:11:25;-17276.47;;;-143.34;100.00
20636;BME280;10477;43.198;27.916;2022-09-21T08:13:55;-17276.47;;;-143.34;100.00
20636;BME280;10477;43.198;27.916;2022-09-21T08:16:24;-17276.47;;;-143.34;100.00
20636;BME280;10477;43.198;27.916;2022-09-21T08:18:52;-17276.47;;;-143.34;100.00
20636;BME280;10477;43.198;27.916;2022-09-21T08:21:20;-17276.47;;;-143.34;100.00
20636;BME280;10477;43.198;27.916;2022-09-21T08:23:48;-17276.47;;;-143.34;100.00
20636;BME280;10477;43.198;27.916;2022-09-21T08:26:18;-17276.47;;;-143.34;100.00
20636;BME280;10477;43.198;27.916;2022-09-21T08:28:48;-17276.47;;;-143.34;100.00
20636;BME280;10477;43.198;27.916;2022-09-21T08:31:18;-17276.47;;;-143.34;100.00
20636;BME280;10477;43.198;27.916;2022-09-21T08:33:47;-17276.47;;;-143.34;100.00
20636;BME280;10477;43.198;27.916;2022-09-21T08:36:16;-17276.47;;;-143.34;100.00
20636;BME280;10477;43.198;27.916;2022-09-21T08:38:44;-17276.47;;;-143.34;100.00
20636;BME280;10477;43.198;27.916;2022-09-21T08:41:19;-17276.47;;;-143.34;100.00
20636;BME280;10477;43.198;27.916;2022-09-21T08:44:03;-17276.47;;;-143.34;100.00
20636;BME280;10477;43.198;27.916;2022-09-21T08:46:28;-17276.47;;;-143.34;100.00
20636;BME280;10477;43.198;27.916;2022-09-21T08:49:03;-17276.47;;;-143.34;100.00
20636;BME280;10477;43.198;27.916;2022-09-21T08:51:36;-17276.47;;;-143.34;100.00
20636;BME280;10477;43.198;27.916;2022-09-21T08:54:33;-17276.47;;;-143.34;100.00
20636;BME280;10477;43.198;27.916;2022-09-21T08:56:58;-17276.47;;;-143.34;100.00
20636;BME280;10477;43.198;27.916;2022-09-21T08:59:25;-17276.47;;;-143.34;100.00
20636;BME280;10477;43.198;27.916;2022-09-21T09:05:37;-17276.47;;;-143.34;100.00
20636;BME280;10477;43.198;27.916;2022-09-21T09:07:57;-17276.47;;;-143.34;100.00
20636;BME280;10477;43.198;27.916;2022-09-21T09:10:40;-17276.47;;;-143.34;100.00
20636;BME280;10477;43.198;27.916;2022-09-21T09:18:51;-17276.47;;;-143.34;100.00
20636;BME280;10477;43.198;27.916;2022-09-21T09:21:23;-17276.47;;;-143.34;100.00
20636;BME280;10477;43.198;27.916;2022-09-21T09:24:11;-17276.47;;;-143.34;100.00
20636;BME280;10477;43.198;27.916;2022-09-21T09:26:48;-17276.47;;;-143.34;100.00
20636;BME280;10477;43.198;27.916;2022-09-21T09:29:40;-17276.47;;;-143.34;100.00
20636;BME280;10477;43.198;27.916;2022-09-21T09:32:08;-17276.47;;;-143.34;100.00
20636;BME280;10477;43.198;27.916;2022-09-21T09:34:40;-17276.47;;;-143.34;100.00
20636;BME280;10477;43.198;27.916;2022-09-21T09:37:14;-17276.47;;;-143.34;100.00
20636;BME280;10477;43.198;27.916;2022-09-21T09:39:44;-17276.47;;;-143.34;100.00
20636;BME280;10477;43.198;27.916;2022-09-21T09:42:31;-17276.47;;;-143.34;100.00
20636;BME280;10477;43.198;27.916;2022-09-21T09:50:30;-17276.47;;;-143.34;94.55
20636;BME280;10477;43.198;27.916;2022-09-21T09:53:13;-17276.47;;;-143.34;95.33
20636;BME280;10477;43.198;27.916;2022-09-21T09:55:49;-17276.47;;;-143.34;96.32
20636;BME280;10477;43.198;27.916;2022-09-21T10:04:11;-17276.47;;;-143.34;100.00
20636;BME280;10477;43.198;27.916;2022-09-21T10:06:41;-17276.47;;;-143.34;100.00
20636;BME280;10477;43.198;27.916;2022-09-21T10:09:30;-17276.47;;;-143.34;100.00
20636;BME280;10477;43.198;27.916;2022-09-21T10:11:49;-17276.47;;;-143.34;100.00
20636;BME280;10477;43.198;27.916;2022-09-21T10:14:22;-17276.47;;;-143.34;100.00
20636;BME280;10477;43.198;27.916;2022-09-21T10:16:52;-17276.47;;;-143.34;100.00
20636;BME280;10477;43.198;27.916;2022-09-21T10:19:25;-17276.47;;;-143.34;100.00
20636;BME280;10477;43.198;27.916;2022-09-21T10:22:00;-17276.47;;;-143.34;100.00
20636;BME280;10477;43.198;27.916;2022-09-21T10:24:37;-17276.47;;;-143.34;100.00
20636;BME280;10477;43.198;27.916;2022-09-21T10:27:12;-17276.47;;;-143.34;100.00
20636;BME280;10477;43.198;27.916;2022-09-21T10:29:42;-17276.47;;;-143.34;100.00
20636;BME280;10477;43.198;27.916;2022-09-21T10:37:39;-17276.47;;;-143.34;100.00
20636;BME280;10477;43.198;27.916;2022-09-21T10:42:56;-17276.47;;;-143.34;100.00
20636;BME280;10477;43.198;27.916;2022-09-21T10:45:26;-17276.47;;;-143.34;100.00
20636;BME280;10477;43.198;27.916;2022-09-21T10:50:41;-17276.47;;;-143.34;100.00
20636;BME280;10477;43.198;27.916;2022-09-21T10:53:12;-17276.47;;;-143.34;100.00
20636;BME280;10477;43.198;27.916;2022-09-21T10:55:43;-17276.47;;;-143.34;100.00
20636;BME280;10477;43.198;27.916;2022-09-21T10:58:13;-17276.47;;;-143.34;100.00
20636;BME280;10477;43.198;27.916;2022-09-21T11:00:49;-17276.47;;;-143.34;100.00
20636;BME280;10477;43.198;27.916;2022-09-21T11:06:40;-17276.47;;;-143.34;100.00
20636;BME280;10477;43.198;27.916;2022-09-21T11:09:04;-17276.47;;;-143.34;100.00
20636;BME280;10477;43.198;27.916;2022-09-21T11:11:44;-17276.47;;;-143.34;100.00
20636;BME280;10477;43.198;27.916;2022-09-21T11:14:17;-17276.47;;;-143.34;100.00
20636;BME280;10477;43.198;27.916;2022-09-21T11:19:42;-17276.47;;;-143.34;100.00
20636;BME280;10477;43.198;27.916;2022-09-21T11:25:27;-17276.47;;;-143.34;100.00
20636;BME280;10477;43.198;27.916;2022-09-21T11:28:04;-17276.47;;;-143.34;100.00
20636;BME280;10477;43.198;27.916;2022-09-21T11:30:40;-17276.47;;;-143.34;100.00
20636;BME280;10477;43.198;27.916;2022-09-21T11:33:45;-17276.47;;;-143.34;100.00
20636;BME280;10477;43.198;27.916;2022-09-21T11:42:29;-17276.47;;;-143.34;100.00
20636;BME280;10477;43.198;27.916;2022-09-21T11:45:03;-17276.47;;;-143.34;100.00
20636;BME280;10477;43.198;27.916;2022-09-21T11:50:26;-17276.47;;;-143.34;100.00
20636;BME280;10477;43.198;27.916;2022-09-21T11:56:05;-17276.47;;;-143.34;100.00
20636;BME280;10477;43.198;27.916;2022-09-21T12:01:13;-17276.47;;;-143.34;100.00
20636;BME280;10477;43.198;27.916;2022-09-21T12:03:58;-17276.47;;;-143.34;100.00
20636;BME280;10477;43.198;27.916;2022-09-21T12:09:35;-17276.47;;;-143.34;100.00
20636;BME280;10477;43.198;27.916;2022-09-21T12:12:04;-17276.47;;;-143.34;100.00
20636;BME280;10477;43.198;27.916;2022-09-21T12:17:21;-17276.47;;;-143.34;100.00
20636;BME280;10477;43.198;27.916;2022-09-21T12:22:29;-17276.47;;;-143.34;100.00
20636;BME280;10477;43.198;27.916;2022-09-21T12:25:11;-17276.47;;;-143.34;100.00
20636;BME280;10477;43.198;27.916;2022-09-21T12:27:45;-15235.44;;;-143.34;100.00
20636;BME280;10477;43.198;27.916;2022-09-21T12:30:15;22669.85;;;-143.34;100.00
20636;BME280;10477;43.198;27.916;2022-09-21T12:35:31;23428.25;;;-143.34;100.00
20636;BME280;10477;43.198;27.916;2022-09-21T12:40:52;40537.93;;;-143.34;100.00
20636;BME280;10477;43.198;27.916;2022-09-21T12:43:31;57351.82;;;-143.34;100.00
20636;BME280;10477;43.198;27.916;2022-09-21T12:45:57;58373.54;;;-143.34;100.00
20636;BME280;10477;43.198;27.916;2022-09-21T12:48:31;53523.07;;;-143.34;100.00
20636;BME280;10477;43.198;27.916;2022-09-21T12:51:10;28488.65;;;-143.34;100.00
20636;BME280;10477;43.198;27.916;2022-09-21T12:53:40;-6522.20;;;-143.34;100.00
20636;BME280;10477;43.198;27.916;2022-09-21T13:01:29;-17276.47;;;-143.34;100.00
20636;BME280;10477;43.198;27.916;2022-09-21T13:09:49;-17276.47;;;-143.34;100.00
20636;BME280;10477;43.198;27.916;2022-09-21T13:12:20;-17276.47;;;-143.34;100.00
20636;BME280;10477;43.198;27.916;2022-09-21T13:14:58;-17276.47;;;-143.34;100.00
20636;BME280;10477;43.198;27.916;2022-09-21T13:17:29;-17276.47;;;-143.34;100.00
20636;BME280;10477;43.198;27.916;2022-09-21T13:20:03;-17276.47;;;-143.34;100.00
20636;BME280;10477;43.198;27.916;2022-09-21T13:22:34;-17276.47;;;-143.34;100.00
20636;BME280;10477;43.198;27.916;2022-09-21T13:30:49;-17276.47;;;-143.34;100.00
20636;BME280;10477;43.198;27.916;2022-09-21T13:36:01;-17276.47;;;-143.34;100.00
20636;BME280;10477;43.198;27.916;2022-09-21T13:44:00;-17276.47;;;-143.34;100.00
20636;BME280;10477;43.198;27.916;2022-09-21T13:49:14;-17276.47;;;-143.34;100.00
20636;BME280;10477;43.198;27.916;2022-09-21T13:52:02;-17276.47;;;-143.34;100.00
20636;BME280;10477;43.198;27.916;2022-09-21T13:57:22;-17276.47;;;-143.34;100.00
20636;BME280;10477;43.198;27.916;2022-09-21T14:02:41;-17276.47;;;-143.34;100.00
20636;BME280;10477;43.198;27.916;2022-09-21T14:07:46;-17276.47;;;-143.34;100.00
20636;BME280;10477;43.198;27.916;2022-09-21T14:10:18;-17276.47;;;-143.34;100.00
20636;BME280;10477;43.198;27.916;2022-09-21T14:12:48;-17276.47;;;-143.34;100.00
20636;BME280;10477;43.198;27.916;2022-09-21T14:21:06;-17276.47;;;-143.34;100.00
20636;BME280;10477;43.198;27.916;2022-09-21T14:23:36;-17276.47;;;-143.34;100.00
20636;BME280;10477;43.198;27.916;2022-09-21T14:26:31;-17276.47;;;-143.34;100.00
20636;BME280;10477;43.198;27.916;2022-09-21T14:28:51;-17276.47;;;-143.34;100.00
20636;BME280;10477;43.198;27.916;2022-09-21T14:31:28;-17276.47;;;-143.34;100.00
20636;BME280;10477;43.198;27.916;2022-09-21T14:33:59;-17276.47;;;-143.34;100.00
20636;BME280;10477;43.198;27.916;2022-09-21T14:36:37;-17276.47;;;-143.34;100.00
20636;BME280;10477;43.198;27.916;2022-09-21T14:39:16;-17276.47;;;-143.34;100.00
20636;BME280;10477;43.198;27.916;2022-09-21T14:41:45;-17276.47;;;-143.34;100.00
20636;BME280;10477;43.198;27.916;2022-09-21T14:44:23;-17276.47;;;-143.34;100.00
20636;BME280;10477;43.198;27.916;2022-09-21T14:52:48;-17276.47;;;-143.34;100.00
20636;BME280;10477;43.198;27.916;2022-09-21T14:55:32;-17276.47;;;-143.34;100.00
20636;BME280;10477;43.198;27.916;2022-09-21T14:58:16;-17276.47;;;-143.34;100.00
20636;BME280;10477;43.198;27.916;2022-09-21T15:00:45;-17276.47;;;-143.34;100.00
20636;BME280;10477;43.198;27.916;2022-09-21T15:03:42;-17276.47;;;-143.34;100.00
20636;BME280;10477;43.198;27.916;2022-09-21T15:06:14;-17276.47;;;-143.34;100.00
20636;BME280;10477;43.198;27.916;2022-09-21T15:12:43;-17276.47;;;-143.34;100.00
20636;BME280;10477;43.198;27.916;2022-09-21T15:15:25;-17276.47;;;-143.34;100.00
20636;BME280;10477;43.198;27.916;2022-09-21T15:17:58;-17276.47;;;-143.34;100.00